sensor_id;sensor_type;location;lat;lon;timestamp;pressure;altitude;pressure_sealevel;temperature;humidity
75745;BME280;64359;51.366;-0.222;2023-07-13T00:00:55;101177.45;;;23.76;56.26
75745;BME280;64359;51.366;-0.222;2023-07-13T00:02:02;101179.59;;;23.76;56.49
75745;BME280;64359;51.366;-0.222;2023-07-13T00:03:06;101180.38;;;23.76;56.33
75745;BME280;64359;51.366;-0.222;2023-07-13T00:04:11;101174.11;;;23.72;56.34
75745;BME280;64359;51.366;-0.222;2023-07-13T00:05:16;101184.60;;;23.75;56.14
75745;BME280;64359;51.366;-0.222;2023-07-13T00:06:20;101182.64;;;23.75;56.24
75745;BME280;64359;51.366;-0.222;2023-07-13T00:07:25;101181.38;;;23.75;56.25
75745;BME280;64359;51.366;-0.222;2023-07-13T00:08:31;101184.67;;;23.75;56.36
75745;BME280;64359;51.366;-0.222;2023-07-13T00:09:37;101183.89;;;23.75;56.23
75745;BME280;64359;51.366;-0.222;2023-07-13T00:10:42;101186.30;;;23.75;56.26
75745;BME280;64359;51.366;-0.222;2023-07-13T00:11:52;101185.48;;;23.74;56.32
75745;BME280;64359;51.366;-0.222;2023-07-13T00:12:56;101185.48;;;23.74;56.41
75745;BME280;64359;51.366;-0.222;2023-07-13T00:14:01;101186.02;;;23.74;56.18
75745;BME280;64359;51.366;-0.222;2023-07-13T00:15:11;101184.77;;;23.74;56.35
75745;BME280;64359;51.366;-0.222;2023-07-13T00:16:16;101181.20;;;23.74;56.13
75745;BME280;64359;51.366;-0.222;2023-07-13T00:17:22;101180.36;;;23.73;56.13
75745;BME280;64359;51.366;-0.222;2023-07-13T00:18:26;101181.57;;;23.74;56.23
75745;BME280;64359;51.366;-0.222;2023-07-13T00:19:33;101178.81;;;23.74;56.11
75745;BME280;64359;51.366;-0.222;2023-07-13T00:20:39;101179.86;;;23.73;56.13
75745;BME280;64359;51.366;-0.222;2023-07-13T00:21:44;101179.65;;;23.73;56.15
75745;BME280;64359;51.366;-0.222;2023-07-13T00:22:49;101181.33;;;23.73;56.25
75745;BME280;64359;51.366;-0.222;2023-07-13T00:23:54;101181.87;;;23.73;56.29
75745;BME280;64359;51.366;-0.222;2023-07-13T00:24:59;101181.49;;;23.73;56.16
75745;BME280;64359;51.366;-0.222;2023-07-13T00:26:05;101181.45;;;23.73;56.19
75745;BME280;64359;51.366;-0.222;2023-07-13T00:27:11;101180.77;;;23.73;56.42
75745;BME280;64359;51.366;-0.222;2023-07-13T00:28:16;101178.51;;;23.72;56.15
75745;BME280;64359;51.366;-0.222;2023-07-13T00:29:21;101180.11;;;23.73;56.37
75745;BME280;64359;51.366;-0.222;2023-07-13T00:30:25;101180.14;;;23.72;56.23
75745;BME280;64359;51.366;-0.222;2023-07-13T00:31:30;101180.35;;;23.72;56.36
75745;BME280;64359;51.366;-0.222;2023-07-13T00:32:35;101182.33;;;23.72;56.35
75745;BME280;64359;51.366;-0.222;2023-07-13T00:33:39;101180.18;;;23.72;56.34
75745;BME280;64359;51.366;-0.222;2023-07-13T00:34:43;101183.78;;;23.72;56.26
75745;BME280;64359;51.366;-0.222;2023-07-13T00:35:48;101181.81;;;23.72;56.22
75745;BME280;64359;51.366;-0.222;2023-07-13T00:36:53;101183.48;;;23.72;56.08
75745;BME280;64359;51.366;-0.222;2023-07-13T00:37:57;101183.11;;;23.71;56.27
75745;BME280;64359;51.366;-0.222;2023-07-13T00:39:02;101180.97;;;23.71;56.28
75745;BME280;64359;51.366;-0.222;2023-07-13T00:40:09;101182.98;;;23.71;56.30
75745;BME280;64359;51.366;-0.222;2023-07-13T00:41:14;101181.44;;;23.71;56.41
75745;BME280;64359;51.366;-0.222;2023-07-13T00:42:19;101179.96;;;23.71;56.23
75745;BME280;64359;51.366;-0.222;2023-07-13T00:43:25;101180.52;;;23.71;56.30
75745;BME280;64359;51.366;-0.222;2023-07-13T00:44:30;101180.92;;;23.70;56.31
75745;BME280;64359;51.366;-0.222;2023-07-13T00:47:28;101173.77;;;23.65;56.52
75745;BME280;64359;51.366;-0.222;2023-07-13T00:48:34;101178.23;;;23.67;56.47
75745;BME280;64359;51.366;-0.222;2023-07-13T00:49:41;101176.05;;;23.67;56.36
75745;BME280;64359;51.366;-0.222;2023-07-13T00:50:46;101170.33;;;23.64;56.18
75745;BME280;64359;51.366;-0.222;2023-07-13T00:51:55;101172.86;;;23.67;56.47
75745;BME280;64359;51.366;-0.222;2023-07-13T00:53:00;101173.41;;;23.67;56.24
75745;BME280;64359;51.366;-0.222;2023-07-13T00:54:09;101173.98;;;23.66;56.41
75745;BME280;64359;51.366;-0.222;2023-07-13T00:55:14;101172.42;;;23.66;56.43
75745;BME280;64359;51.366;-0.222;2023-07-13T00:56:19;101173.65;;;23.66;56.41
75745;BME280;64359;51.366;-0.222;2023-07-13T00:57:25;101176.04;;;23.66;56.31
75745;BME280;64359;51.366;-0.222;2023-07-13T00:58:30;101171.14;;;23.66;56.41
75745;BME280;64359;51.366;-0.222;2023-07-13T00:59:35;101173.73;;;23.66;56.46
75745;BME280;64359;51.366;-0.222;2023-07-13T01:00:41;101174.30;;;23.65;56.42
75745;BME280;64359;51.366;-0.222;2023-07-13T01:01:46;101173.73;;;23.66;56.56
75745;BME280;64359;51.366;-0.222;2023-07-13T01:02:51;101173.58;;;23.65;56.35
75745;BME280;64359;51.366;-0.222;2023-07-13T01:03:56;101178.27;;;23.66;56.45
75745;BME280;64359;51.366;-0.222;2023-07-13T01:05:01;101179.02;;;23.65;56.44
75745;BME280;64359;51.366;-0.222;2023-07-13T01:06:06;101179.06;;;23.65;56.39
75745;BME280;64359;51.366;-0.222;2023-07-13T01:07:12;101177.05;;;23.65;56.45
75745;BME280;64359;51.366;-0.222;2023-07-13T01:08:17;101180.90;;;23.65;56.45
75745;BME280;64359;51.366;-0.222;2023-07-13T01:09:21;101179.68;;;23.65;56.16
75745;BME280;64359;51.366;-0.222;2023-07-13T01:10:26;101179.30;;;23.64;56.37
75745;BME280;64359;51.366;-0.222;2023-07-13T01:11:31;101180.18;;;23.65;56.55
75745;BME280;64359;51.366;-0.222;2023-07-13T01:12:36;101179.52;;;23.64;56.44
75745;BME280;64359;51.366;-0.222;2023-07-13T01:13:40;101180.81;;;23.64;56.23
75745;BME280;64359;51.366;-0.222;2023-07-13T01:14:45;101179.39;;;23.64;56.25
75745;BME280;64359;51.366;-0.222;2023-07-13T01:15:51;101180.09;;;23.64;56.41
75745;BME280;64359;51.366;-0.222;2023-07-13T01:16:56;101177.63;;;23.63;56.25
75745;BME280;64359;51.366;-0.222;2023-07-13T01:18:04;101180.02;;;23.63;56.23
75745;BME280;64359;51.366;-0.222;2023-07-13T01:19:18;101178.92;;;23.63;56.43
75745;BME280;64359;51.366;-0.222;2023-07-13T01:20:26;101173.46;;;23.62;56.40
75745;BME280;64359;51.366;-0.222;2023-07-13T01:21:32;101179.29;;;23.62;56.28
75745;BME280;64359;51.366;-0.222;2023-07-13T01:22:37;101180.70;;;23.61;56.41
75745;BME280;64359;51.366;-0.222;2023-07-13T01:23:42;101180.25;;;23.62;56.23
75745;BME280;64359;51.366;-0.222;2023-07-13T01:24:48;101180.42;;;23.61;56.37
75745;BME280;64359;51.366;-0.222;2023-07-13T01:25:53;101180.45;;;23.61;56.50
75745;BME280;64359;51.366;-0.222;2023-07-13T01:26:58;101179.03;;;23.61;56.26
75745;BME280;64359;51.366;-0.222;2023-07-13T01:28:03;101176.47;;;23.60;56.43
75745;BME280;64359;51.366;-0.222;2023-07-13T01:29:07;101177.64;;;23.59;56.41
75745;BME280;64359;51.366;-0.222;2023-07-13T01:30:13;101178.09;;;23.60;56.30
75745;BME280;64359;51.366;-0.222;2023-07-13T01:31:17;101176.17;;;23.59;56.31
75745;BME280;64359;51.366;-0.222;2023-07-13T01:32:24;101176.72;;;23.59;56.27
75745;BME280;64359;51.366;-0.222;2023-07-13T01:33:28;101174.95;;;23.59;56.32
75745;BME280;64359;51.366;-0.222;2023-07-13T01:34:33;101175.91;;;23.58;56.34
75745;BME280;64359;51.366;-0.222;2023-07-13T01:35:37;101180.27;;;23.58;56.42
75745;BME280;64359;51.366;-0.222;2023-07-13T01:36:42;101179.14;;;23.58;56.42
75745;BME280;64359;51.366;-0.222;2023-07-13T01:37:47;101178.63;;;23.58;56.32
75745;BME280;64359;51.366;-0.222;2023-07-13T01:38:51;101182.14;;;23.58;56.47
75745;BME280;64359;51.366;-0.222;2023-07-13T01:39:56;101181.05;;;23.58;56.28
75745;BME280;64359;51.366;-0.222;2023-07-13T01:41:00;101183.23;;;23.58;56.51
75745;BME280;64359;51.366;-0.222;2023-07-13T01:42:05;101183.27;;;23.57;56.44
75745;BME280;64359;51.366;-0.222;2023-07-13T01:43:09;101182.02;;;23.57;56.35
75745;BME280;64359;51.366;-0.222;2023-07-13T01:44:14;101185.11;;;23.57;56.50
75745;BME280;64359;51.366;-0.222;2023-07-13T01:45:19;101180.19;;;23.55;56.40
75745;BME280;64359;51.366;-0.222;2023-07-13T01:46:23;101184.06;;;23.57;56.36
75745;BME280;64359;51.366;-0.222;2023-07-13T01:47:28;101183.14;;;23.57;56.48
75745;BME280;64359;51.366;-0.222;2023-07-13T01:48:33;101181.23;;;23.56;56.41
75745;BME280;64359;51.366;-0.222;2023-07-13T01:49:38;101181.35;;;23.57;56.36
75745;BME280;64359;51.366;-0.222;2023-07-13T01:50:42;101183.27;;;23.56;56.27
75745;BME280;64359;51.366;-0.222;2023-07-13T01:51:47;101182.92;;;23.56;56.38
75745;BME280;64359;51.366;-0.222;2023-07-13T01:52:52;101181.48;;;23.56;56.55
75745;BME280;64359;51.366;-0.222;2023-07-13T01:53:56;101178.73;;;23.56;56.40
75745;BME280;64359;51.366;-0.222;2023-07-13T01:55:01;101179.83;;;23.56;56.47
75745;BME280;64359;51.366;-0.222;2023-07-13T01:56:06;101174.63;;;23.55;56.43
75745;BME280;64359;51.366;-0.222;2023-07-13T01:57:10;101175.00;;;23.55;56.36
75745;BME280;64359;51.366;-0.222;2023-07-13T01:58:14;101176.12;;;23.55;56.34
75745;BME280;64359;51.366;-0.222;2023-07-13T01:59:19;101177.89;;;23.55;56.44
75745;BME280;64359;51.366;-0.222;2023-07-13T02:00:24;101176.97;;;23.56;56.43
75745;BME280;64359;51.366;-0.222;2023-07-13T02:01:29;101173.78;;;23.55;56.46
75745;BME280;64359;51.366;-0.222;2023-07-13T02:02:33;101175.23;;;23.55;56.37
75745;BME280;64359;51.366;-0.222;2023-07-13T02:03:38;101173.02;;;23.55;56.59
75745;BME280;64359;51.366;-0.222;2023-07-13T02:04:42;101169.66;;;23.54;56.58
75745;BME280;64359;51.366;-0.222;2023-07-13T02:05:47;101174.77;;;23.54;56.39
75745;BME280;64359;51.366;-0.222;2023-07-13T02:06:51;101174.93;;;23.54;56.48
75745;BME280;64359;51.366;-0.222;2023-07-13T02:07:58;101174.64;;;23.54;56.43
75745;BME280;64359;51.366;-0.222;2023-07-13T02:09:03;101173.20;;;23.52;56.52
75745;BME280;64359;51.366;-0.222;2023-07-13T02:10:09;101175.55;;;23.54;56.52
75745;BME280;64359;51.366;-0.222;2023-07-13T02:11:14;101174.38;;;23.53;56.35
75745;BME280;64359;51.366;-0.222;2023-07-13T02:12:18;101167.83;;;23.50;56.52
75745;BME280;64359;51.366;-0.222;2023-07-13T02:13:23;101173.34;;;23.53;56.46
75745;BME280;64359;51.366;-0.222;2023-07-13T02:14:27;101172.19;;;23.52;56.39
75745;BME280;64359;51.366;-0.222;2023-07-13T02:15:32;101176.02;;;23.52;56.61
75745;BME280;64359;51.366;-0.222;2023-07-13T02:16:36;101175.75;;;23.52;56.55
75745;BME280;64359;51.366;-0.222;2023-07-13T02:17:41;101175.13;;;23.52;56.63
75745;BME280;64359;51.366;-0.222;2023-07-13T02:18:45;101170.80;;;23.50;56.59
75745;BME280;64359;51.366;-0.222;2023-07-13T02:19:50;101169.89;;;23.51;56.49
75745;BME280;64359;51.366;-0.222;2023-07-13T02:20:54;101164.96;;;23.47;56.49
75745;BME280;64359;51.366;-0.222;2023-07-13T02:21:59;101166.38;;;23.48;56.53
75745;BME280;64359;51.366;-0.222;2023-07-13T02:23:03;101169.09;;;23.51;56.41
75745;BME280;64359;51.366;-0.222;2023-07-13T02:24:08;101167.91;;;23.50;56.65
75745;BME280;64359;51.366;-0.222;2023-07-13T02:25:12;101167.70;;;23.50;56.65
75745;BME280;64359;51.366;-0.222;2023-07-13T02:26:17;101161.11;;;23.47;56.44
75745;BME280;64359;51.366;-0.222;2023-07-13T02:27:22;101166.70;;;23.50;56.63
75745;BME280;64359;51.366;-0.222;2023-07-13T02:28:26;101164.39;;;23.49;56.55
75745;BME280;64359;51.366;-0.222;2023-07-13T02:29:31;101160.92;;;23.49;56.56
75745;BME280;64359;51.366;-0.222;2023-07-13T02:30:36;101164.05;;;23.49;56.53
75745;BME280;64359;51.366;-0.222;2023-07-13T02:31:41;101159.66;;;23.48;56.57
75745;BME280;64359;51.366;-0.222;2023-07-13T02:32:46;101163.30;;;23.48;56.30
75745;BME280;64359;51.366;-0.222;2023-07-13T02:33:50;101163.27;;;23.47;56.52
75745;BME280;64359;51.366;-0.222;2023-07-13T02:34:55;101164.80;;;23.47;56.60
75745;BME280;64359;51.366;-0.222;2023-07-13T02:35:59;101165.63;;;23.47;56.45
75745;BME280;64359;51.366;-0.222;2023-07-13T02:37:04;101166.21;;;23.46;56.66
75745;BME280;64359;51.366;-0.222;2023-07-13T02:38:08;101163.50;;;23.46;56.42
75745;BME280;64359;51.366;-0.222;2023-07-13T02:39:13;101164.75;;;23.46;56.48
75745;BME280;64359;51.366;-0.222;2023-07-13T02:40:18;101166.77;;;23.46;56.72
75745;BME280;64359;51.366;-0.222;2023-07-13T02:41:23;101164.83;;;23.46;56.67
75745;BME280;64359;51.366;-0.222;2023-07-13T02:42:27;101160.64;;;23.46;56.51
75745;BME280;64359;51.366;-0.222;2023-07-13T02:43:32;101165.41;;;23.46;56.54
75745;BME280;64359;51.366;-0.222;2023-07-13T02:44:37;101160.39;;;23.45;56.54
75745;BME280;64359;51.366;-0.222;2023-07-13T02:45:45;101158.95;;;23.44;56.56
75745;BME280;64359;51.366;-0.222;2023-07-13T02:46:50;101157.75;;;23.45;56.52
75745;BME280;64359;51.366;-0.222;2023-07-13T02:47:55;101159.76;;;23.44;56.59
75745;BME280;64359;51.366;-0.222;2023-07-13T02:49:00;101159.96;;;23.44;56.63
75745;BME280;64359;51.366;-0.222;2023-07-13T02:50:05;101163.09;;;23.44;56.58
75745;BME280;64359;51.366;-0.222;2023-07-13T02:51:10;101161.33;;;23.43;56.54
75745;BME280;64359;51.366;-0.222;2023-07-13T02:52:14;101165.68;;;23.43;56.50
75745;BME280;64359;51.366;-0.222;2023-07-13T02:53:21;101166.06;;;23.43;56.54
75745;BME280;64359;51.366;-0.222;2023-07-13T02:54:25;101165.46;;;23.42;56.71
75745;BME280;64359;51.366;-0.222;2023-07-13T02:55:30;101167.27;;;23.42;56.61
75745;BME280;64359;51.366;-0.222;2023-07-13T02:56:34;101162.40;;;23.42;56.65
75745;BME280;64359;51.366;-0.222;2023-07-13T02:57:39;101165.63;;;23.42;56.50
75745;BME280;64359;51.366;-0.222;2023-07-13T02:58:44;101167.09;;;23.42;56.42
75745;BME280;64359;51.366;-0.222;2023-07-13T02:59:48;101163.77;;;23.41;56.44
75745;BME280;64359;51.366;-0.222;2023-07-13T03:00:53;101168.27;;;23.41;56.57
75745;BME280;64359;51.366;-0.222;2023-07-13T03:01:57;101172.77;;;23.42;56.72
75745;BME280;64359;51.366;-0.222;2023-07-13T03:03:02;101171.33;;;23.42;56.54
75745;BME280;64359;51.366;-0.222;2023-07-13T03:04:06;101169.36;;;23.41;56.50
75745;BME280;64359;51.366;-0.222;2023-07-13T03:05:11;101170.91;;;23.41;56.64
75745;BME280;64359;51.366;-0.222;2023-07-13T03:06:16;101173.59;;;23.41;56.65
75745;BME280;64359;51.366;-0.222;2023-07-13T03:07:21;101177.43;;;23.41;56.53
75745;BME280;64359;51.366;-0.222;2023-07-13T03:08:26;101174.96;;;23.40;56.72
75745;BME280;64359;51.366;-0.222;2023-07-13T03:09:32;101175.51;;;23.40;56.51
75745;BME280;64359;51.366;-0.222;2023-07-13T03:10:37;101175.20;;;23.40;56.51
75745;BME280;64359;51.366;-0.222;2023-07-13T03:11:42;101174.87;;;23.40;56.64
75745;BME280;64359;51.366;-0.222;2023-07-13T03:12:47;101176.13;;;23.40;56.56
75745;BME280;64359;51.366;-0.222;2023-07-13T03:13:51;101170.05;;;23.39;56.66
75745;BME280;64359;51.366;-0.222;2023-07-13T03:14:56;101170.93;;;23.39;56.63
75745;BME280;64359;51.366;-0.222;2023-07-13T03:16:01;101170.42;;;23.39;56.57
75745;BME280;64359;51.366;-0.222;2023-07-13T03:17:06;101170.30;;;23.38;56.56
75745;BME280;64359;51.366;-0.222;2023-07-13T03:18:10;101171.89;;;23.39;56.77
75745;BME280;64359;51.366;-0.222;2023-07-13T03:19:14;101169.08;;;23.38;56.57
75745;BME280;64359;51.366;-0.222;2023-07-13T03:20:19;101172.52;;;23.38;56.55
75745;BME280;64359;51.366;-0.222;2023-07-13T03:21:23;101171.52;;;23.38;56.65
75745;BME280;64359;51.366;-0.222;2023-07-13T03:22:28;101173.35;;;23.37;56.72
75745;BME280;64359;51.366;-0.222;2023-07-13T03:23:32;101172.48;;;23.37;56.53
75745;BME280;64359;51.366;-0.222;2023-07-13T03:24:37;101175.06;;;23.37;56.43
75745;BME280;64359;51.366;-0.222;2023-07-13T03:25:41;101173.80;;;23.36;56.50
75745;BME280;64359;51.366;-0.222;2023-07-13T03:26:47;101172.29;;;23.37;56.57
75745;BME280;64359;51.366;-0.222;2023-07-13T03:27:51;101166.28;;;23.33;56.48
75745;BME280;64359;51.366;-0.222;2023-07-13T03:28:56;101173.51;;;23.36;56.70
75745;BME280;64359;51.366;-0.222;2023-07-13T03:30:00;101174.59;;;23.36;56.66
75745;BME280;64359;51.366;-0.222;2023-07-13T03:31:07;101174.26;;;23.36;56.65
75745;BME280;64359;51.366;-0.222;2023-07-13T03:32:12;101174.00;;;23.35;56.60
75745;BME280;64359;51.366;-0.222;2023-07-13T03:33:16;101178.35;;;23.35;56.61
75745;BME280;64359;51.366;-0.222;2023-07-13T03:34:21;101176.80;;;23.34;56.54
75745;BME280;64359;51.366;-0.222;2023-07-13T03:35:25;101176.63;;;23.35;56.50
75745;BME280;64359;51.366;-0.222;2023-07-13T03:36:31;101181.35;;;23.34;56.64
75745;BME280;64359;51.366;-0.222;2023-07-13T03:37:35;101182.69;;;23.34;56.62
75745;BME280;64359;51.366;-0.222;2023-07-13T03:38:45;101185.23;;;23.34;56.52
75745;BME280;64359;51.366;-0.222;2023-07-13T03:39:50;101185.81;;;23.33;56.61
75745;BME280;64359;51.366;-0.222;2023-07-13T03:40:54;101186.40;;;23.33;56.61
75745;BME280;64359;51.366;-0.222;2023-07-13T03:41:59;101186.48;;;23.33;56.37
75745;BME280;64359;51.366;-0.222;2023-07-13T03:43:03;101185.00;;;23.31;56.61
75745;BME280;64359;51.366;-0.222;2023-07-13T03:44:07;101185.52;;;23.32;56.33
75745;BME280;64359;51.366;-0.222;2023-07-13T03:45:12;101183.70;;;23.31;56.48
75745;BME280;64359;51.366;-0.222;2023-07-13T03:46:17;101176.27;;;23.27;56.55
75745;BME280;64359;51.366;-0.222;2023-07-13T03:47:21;101183.63;;;23.31;56.43
75745;BME280;64359;51.366;-0.222;2023-07-13T03:48:26;101183.49;;;23.30;56.68
75745;BME280;64359;51.366;-0.222;2023-07-13T03:49:30;101183.78;;;23.29;56.60
75745;BME280;64359;51.366;-0.222;2023-07-13T03:50:34;101179.36;;;23.27;56.51
75745;BME280;64359;51.366;-0.222;2023-07-13T03:51:39;101185.86;;;23.29;56.67
75745;BME280;64359;51.366;-0.222;2023-07-13T03:52:43;101181.70;;;23.26;56.60
75745;BME280;64359;51.366;-0.222;2023-07-13T03:53:48;101187.91;;;23.28;56.66
75745;BME280;64359;51.366;-0.222;2023-07-13T03:54:53;101188.11;;;23.28;56.56
75745;BME280;64359;51.366;-0.222;2023-07-13T03:55:57;101188.77;;;23.27;56.49
75745;BME280;64359;51.366;-0.222;2023-07-13T03:57:01;101190.75;;;23.27;56.56
75745;BME280;64359;51.366;-0.222;2023-07-13T03:58:30;101193.38;;;23.26;56.56
75745;BME280;64359;51.366;-0.222;2023-07-13T03:59:34;101192.28;;;23.25;56.86
75745;BME280;64359;51.366;-0.222;2023-07-13T04:00:39;101196.96;;;23.25;56.68
75745;BME280;64359;51.366;-0.222;2023-07-13T04:01:44;101195.58;;;23.25;56.64
75745;BME280;64359;51.366;-0.222;2023-07-13T04:02:48;101197.38;;;23.25;56.58
75745;BME280;64359;51.366;-0.222;2023-07-13T04:03:53;101199.30;;;23.24;56.64
75745;BME280;64359;51.366;-0.222;2023-07-13T04:04:58;101198.88;;;23.24;56.58
75745;BME280;64359;51.366;-0.222;2023-07-13T04:06:03;101200.17;;;23.24;56.67
75745;BME280;64359;51.366;-0.222;2023-07-13T04:07:08;101200.72;;;23.24;56.86
75745;BME280;64359;51.366;-0.222;2023-07-13T04:08:12;101196.23;;;23.24;56.66
75745;BME280;64359;51.366;-0.222;2023-07-13T04:09:17;101198.92;;;23.24;56.65
75745;BME280;64359;51.366;-0.222;2023-07-13T04:10:21;101200.59;;;23.24;56.65
75745;BME280;64359;51.366;-0.222;2023-07-13T04:11:27;101200.55;;;23.24;56.68
75745;BME280;64359;51.366;-0.222;2023-07-13T04:12:32;101201.88;;;23.24;56.69
75745;BME280;64359;51.366;-0.222;2023-07-13T04:13:36;101203.35;;;23.24;56.75
75745;BME280;64359;51.366;-0.222;2023-07-13T04:14:41;101201.76;;;23.23;56.58
75745;BME280;64359;51.366;-0.222;2023-07-13T04:15:45;101202.63;;;23.24;56.78
75745;BME280;64359;51.366;-0.222;2023-07-13T04:16:50;101206.65;;;23.23;56.61
75745;BME280;64359;51.366;-0.222;2023-07-13T04:17:54;101207.77;;;23.23;56.62
75745;BME280;64359;51.366;-0.222;2023-07-13T04:18:58;101210.49;;;23.23;56.72
75745;BME280;64359;51.366;-0.222;2023-07-13T04:20:04;101209.57;;;23.23;56.72
75745;BME280;64359;51.366;-0.222;2023-07-13T04:21:09;101209.58;;;23.23;56.56
75745;BME280;64359;51.366;-0.222;2023-07-13T04:22:14;101211.58;;;23.23;56.78
75745;BME280;64359;51.366;-0.222;2023-07-13T04:23:19;101209.65;;;23.22;56.62
75745;BME280;64359;51.366;-0.222;2023-07-13T04:24:23;101209.65;;;23.22;56.56
75745;BME280;64359;51.366;-0.222;2023-07-13T04:25:28;101207.30;;;23.22;56.71
75745;BME280;64359;51.366;-0.222;2023-07-13T04:26:32;101206.46;;;23.22;56.86
75745;BME280;64359;51.366;-0.222;2023-07-13T04:27:39;101201.95;;;23.19;56.61
75745;BME280;64359;51.366;-0.222;2023-07-13T04:28:43;101206.80;;;23.22;56.78
75745;BME280;64359;51.366;-0.222;2023-07-13T04:29:47;101205.59;;;23.22;56.62
75745;BME280;64359;51.366;-0.222;2023-07-13T04:30:52;101205.92;;;23.22;56.69
75745;BME280;64359;51.366;-0.222;2023-07-13T04:31:56;101207.45;;;23.21;56.74
75745;BME280;64359;51.366;-0.222;2023-07-13T04:33:01;101208.01;;;23.21;56.63
75745;BME280;64359;51.366;-0.222;2023-07-13T04:34:05;101209.42;;;23.21;56.57
75745;BME280;64359;51.366;-0.222;2023-07-13T04:35:10;101209.77;;;23.21;56.69
75745;BME280;64359;51.366;-0.222;2023-07-13T04:36:14;101206.38;;;23.21;56.66
75745;BME280;64359;51.366;-0.222;2023-07-13T04:37:19;101209.46;;;23.21;56.68
75745;BME280;64359;51.366;-0.222;2023-07-13T04:38:26;101212.55;;;23.21;56.73
75745;BME280;64359;51.366;-0.222;2023-07-13T04:39:31;101212.56;;;23.21;56.48
75745;BME280;64359;51.366;-0.222;2023-07-13T04:40:35;101209.39;;;23.17;56.54
75745;BME280;64359;51.366;-0.222;2023-07-13T04:41:40;101215.11;;;23.21;56.77
75745;BME280;64359;51.366;-0.222;2023-07-13T04:42:44;101213.19;;;23.20;56.59
75745;BME280;64359;51.366;-0.222;2023-07-13T04:43:49;101214.86;;;23.20;56.60
75745;BME280;64359;51.366;-0.222;2023-07-13T04:44:53;101213.23;;;23.20;56.53
75745;BME280;64359;51.366;-0.222;2023-07-13T04:46:02;101216.06;;;23.20;56.65
75745;BME280;64359;51.366;-0.222;2023-07-13T04:47:07;101218.70;;;23.20;56.54
75745;BME280;64359;51.366;-0.222;2023-07-13T04:48:11;101216.60;;;23.19;56.59
75745;BME280;64359;51.366;-0.222;2023-07-13T04:49:16;101220.88;;;23.20;56.67
75745;BME280;64359;51.366;-0.222;2023-07-13T04:50:20;101224.88;;;23.19;56.70
75745;BME280;64359;51.366;-0.222;2023-07-13T04:51:26;101223.09;;;23.19;56.83
75745;BME280;64359;51.366;-0.222;2023-07-13T04:52:30;101219.86;;;23.19;56.61
75745;BME280;64359;51.366;-0.222;2023-07-13T04:53:36;101219.13;;;23.16;56.66
75745;BME280;64359;51.366;-0.222;2023-07-13T04:54:40;101222.79;;;23.19;56.79
75745;BME280;64359;51.366;-0.222;2023-07-13T04:55:45;101222.64;;;23.18;56.72
75745;BME280;64359;51.366;-0.222;2023-07-13T04:56:50;101219.92;;;23.18;56.69
75745;BME280;64359;51.366;-0.222;2023-07-13T04:57:54;101220.66;;;23.18;56.65
75745;BME280;64359;51.366;-0.222;2023-07-13T04:59:01;101221.42;;;23.18;56.60
75745;BME280;64359;51.366;-0.222;2023-07-13T05:00:07;101219.75;;;23.18;56.59
75745;BME280;64359;51.366;-0.222;2023-07-13T05:01:14;101221.29;;;23.18;56.76
75745;BME280;64359;51.366;-0.222;2023-07-13T05:02:19;101218.98;;;23.17;56.54
75745;BME280;64359;51.366;-0.222;2023-07-13T05:03:24;101215.89;;;23.17;56.50
75745;BME280;64359;51.366;-0.222;2023-07-13T05:04:28;101220.61;;;23.17;56.72
75745;BME280;64359;51.366;-0.222;2023-07-13T05:05:33;101215.96;;;23.17;56.65
75745;BME280;64359;51.366;-0.222;2023-07-13T05:06:37;101218.52;;;23.17;56.48
75745;BME280;64359;51.366;-0.222;2023-07-13T05:07:42;101221.77;;;23.17;56.44
75745;BME280;64359;51.366;-0.222;2023-07-13T05:08:46;101219.64;;;23.17;56.57
75745;BME280;64359;51.366;-0.222;2023-07-13T05:09:51;101224.23;;;23.16;56.44
75745;BME280;64359;51.366;-0.222;2023-07-13T05:10:55;101221.97;;;23.15;56.54
75745;BME280;64359;51.366;-0.222;2023-07-13T05:12:00;101226.11;;;23.15;56.43
75745;BME280;64359;51.366;-0.222;2023-07-13T05:13:04;101229.04;;;23.15;56.60
75745;BME280;64359;51.366;-0.222;2023-07-13T05:14:08;101228.27;;;23.14;56.59
75745;BME280;64359;51.366;-0.222;2023-07-13T05:15:14;101231.36;;;23.14;56.53
75745;BME280;64359;51.366;-0.222;2023-07-13T05:16:19;101232.66;;;23.14;57.21
75745;BME280;64359;51.366;-0.222;2023-07-13T05:17:23;101233.23;;;23.14;57.60
75745;BME280;64359;51.366;-0.222;2023-07-13T05:18:28;101235.38;;;23.14;57.62
75745;BME280;64359;51.366;-0.222;2023-07-13T05:19:33;101231.95;;;23.14;58.21
75745;BME280;64359;51.366;-0.222;2023-07-13T05:20:37;101233.39;;;23.15;57.66
75745;BME280;64359;51.366;-0.222;2023-07-13T05:21:41;101231.77;;;23.16;57.96
75745;BME280;64359;51.366;-0.222;2023-07-13T05:22:46;101233.40;;;23.18;57.74
75745;BME280;64359;51.366;-0.222;2023-07-13T05:23:51;101234.88;;;23.19;57.67
75745;BME280;64359;51.366;-0.222;2023-07-13T05:24:55;101234.72;;;23.20;57.42
75745;BME280;64359;51.366;-0.222;2023-07-13T05:26:00;101232.94;;;23.22;57.25
75745;BME280;64359;51.366;-0.222;2023-07-13T05:27:05;101234.13;;;23.24;57.33
75745;BME280;64359;51.366;-0.222;2023-07-13T05:28:09;101232.89;;;23.25;57.24
75745;BME280;64359;51.366;-0.222;2023-07-13T05:29:13;101237.74;;;23.26;57.07
75745;BME280;64359;51.366;-0.222;2023-07-13T05:30:18;101233.48;;;23.27;56.97
75745;BME280;64359;51.366;-0.222;2023-07-13T05:31:23;101236.64;;;23.28;56.97
75745;BME280;64359;51.366;-0.222;2023-07-13T05:32:27;101239.07;;;23.29;56.85
75745;BME280;64359;51.366;-0.222;2023-07-13T05:33:32;101242.42;;;23.30;56.89
75745;BME280;64359;51.366;-0.222;2023-07-13T05:34:36;101245.48;;;23.30;56.83
75745;BME280;64359;51.366;-0.222;2023-07-13T05:35:41;101243.05;;;23.31;56.92
75745;BME280;64359;51.366;-0.222;2023-07-13T05:36:45;101244.69;;;23.31;56.46
75745;BME280;64359;51.366;-0.222;2023-07-13T05:37:50;101246.79;;;23.31;56.48